Terminal Aerodrome Forecast
Issued by NWS Atlanta, GA

Home | Current Version | Previous Version | Text Only | Print | Product List | Glossary On
Versions: 1 2 3 4 5 6 7 8 9 10 11 12 13 14 15 16
120
FTUS42 KFFC 271122
TAFMCN
TAF
KMCN 271122Z 2712/2812 24004KT P6SM SKC
     FM271600 25007KT P6SM SCT060
     FM280200 25003KT P6SM SCT250=

USA.gov is the U.S. government's official web portal to all federal, state and local government web resources and services.